Time;durP1;ratioP1;P1;durP2;ratioP2;P2;SDS_P1;SDS_P2;PMS_P1;PMS_P2;Temp;Humidity;BMP_temperature;BMP_pressure;BME280_temperature;BME280_humidity;BME280_pressure;Samples;Min_cycle;Max_cycle;Signal;HPM_P1;HPM_P2
2022/01/05 00:01:08;;;;;;;11.38;7.50;;;;;;;2.07;80.20;95921.22;5116450;28;20024;-68
2022/01/05 00:03:35;;;;;;;10.73;8.30;;;;;;;2.08;79.64;95922.09;5116563;28;20034;-65
2022/01/05 00:06:02;;;;;;;12.30;9.15;;;;;;;2.02;79.77;95920.44;5116378;28;20374;-65
2022/01/05 00:08:27;;;;;;;15.07;8.13;;;;;;;2.03;79.50;95927.31;5116338;28;20020;-69
2022/01/05 00:10:53;;;;;;;11.88;8.45;;;;;;;2.01;80.16;95935.06;5116321;28;20552;-65
2022/01/05 00:13:19;;;;;;;13.25;8.13;;;;;;;1.88;80.00;95936.09;5116291;28;20500;-66
2022/01/05 00:15:45;;;;;;;13.70;8.82;;;;;;;1.82;80.58;95939.63;5116154;28;20533;-67
2022/01/05 00:18:11;;;;;;;12.82;9.88;;;;;;;1.86;81.05;95937.84;5115318;28;20024;-63
2022/01/05 00:20:37;;;;;;;11.40;8.40;;;;;;;1.77;80.81;95941.41;5115826;28;20039;-68
2022/01/05 00:23:02;;;;;;;10.38;7.70;;;;;;;1.73;81.28;95944.88;5116044;28;20461;-65
2022/01/05 00:25:28;;;;;;;11.52;7.72;;;;;;;1.70;80.61;95942.34;5115825;28;20044;-68
2022/01/05 00:27:53;;;;;;;9.93;7.50;;;;;;;1.65;80.50;95942.41;5116000;28;20024;-67
2022/01/05 00:30:19;;;;;;;13.25;8.45;;;;;;;1.58;81.07;95938.19;5115907;28;20550;-63
2022/01/05 00:32:45;;;;;;;12.20;8.27;;;;;;;1.43;82.79;95939.22;5115985;27;20047;-67
2022/01/05 00:35:10;;;;;;;11.30;8.63;;;;;;;1.38;83.10;95941.84;5115903;28;20046;-66
2022/01/05 00:37:36;;;;;;;13.82;9.27;;;;;;;1.33;83.39;95947.09;5115803;28;20016;-68
2022/01/05 00:40:02;;;;;;;10.95;7.72;;;;;;;1.44;82.63;95940.94;5115648;28;20027;-65
2022/01/05 00:42:28;;;;;;;12.18;8.15;;;;;;;1.39;82.41;95933.25;5115893;28;20041;-66
2022/01/05 00:44:53;;;;;;;11.10;8.20;;;;;;;1.48;82.39;95946.03;5115649;28;20069;-64
2022/01/05 00:47:20;;;;;;;12.32;8.32;;;;;;;1.46;81.93;95941.78;5115587;28;20034;-68
2022/01/05 00:49:46;;;;;;;10.65;8.38;;;;;;;1.46;81.60;95937.47;5115516;28;20084;-65
2022/01/05 00:52:12;;;;;;;12.27;8.80;;;;;;;1.43;82.01;95939.22;5115590;28;20028;-66
2022/01/05 00:54:37;;;;;;;10.93;7.55;;;;;;;1.48;81.59;95932.31;5115383;28;20485;-66
2022/01/05 00:57:03;;;;;;;11.02;7.53;;;;;;;1.41;81.18;95933.25;5115499;28;20031;-65
2022/01/05 00:59:29;;;;;;;13.20;8.27;;;;;;;1.40;81.13;95940.13;5115353;28;20049;-66
2022/01/05 01:01:54;;;;;;;13.18;8.43;;;;;;;1.39;81.06;95934.09;5115386;28;20027;-64
2022/01/05 01:04:20;;;;;;;10.30;7.53;;;;;;;1.34;81.05;95932.44;5115320;28;20023;-67
2022/01/05 01:06:45;;;;;;;10.70;8.02;;;;;;;1.40;81.30;95932.38;5115312;28;20019;-64
2022/01/05 01:09:12;;;;;;;17.13;9.80;;;;;;;1.36;83.03;95930.72;5115207;28;20055;-65
2022/01/05 01:11:38;;;;;;;11.43;8.10;;;;;;;1.31;83.00;95922.16;5115090;28;20050;-65
2022/01/05 01:14:04;;;;;;;13.57;7.88;;;;;;;1.39;82.40;95923.78;5115014;28;20019;-66
2022/01/05 01:16:29;;;;;;;11.45;7.95;;;;;;;1.39;82.30;95920.38;5115143;28;20423;-63
2022/01/05 01:18:55;;;;;;;13.07;8.60;;;;;;;1.29;82.84;95919.63;5115041;28;20461;-68
2022/01/05 01:21:20;;;;;;;17.98;9.68;;;;;;;1.29;83.29;95924.75;5114832;28;20385;-66
2022/01/05 01:23:55;;;;;;;15.93;8.10;;;;;;;1.41;83.11;95920.38;5115016;28;20028;-65
2022/01/05 01:26:30;;;;;;;14.93;9.20;;;;;;;1.37;82.24;95907.50;5114548;28;20047;-68
2022/01/05 01:28:57;;;;;;;11.23;7.93;;;;;;;1.33;82.31;95915.28;5114902;28;20469;-65
2022/01/05 01:31:24;;;;;;;14.70;8.75;;;;;;;1.38;81.91;95921.22;5114533;28;20039;-67
2022/01/05 01:33:50;;;;;;;13.32;9.73;;;;;;;1.37;82.23;95925.56;5114695;28;20082;-63
2022/01/05 01:36:16;;;;;;;12.27;8.35;;;;;;;1.37;82.22;95919.53;5114574;28;20393;-65
2022/01/05 01:38:42;;;;;;;14.90;8.82;;;;;;;1.44;81.97;95926.31;5114617;28;20031;-64
2022/01/05 01:41:09;;;;;;;14.15;8.57;;;;;;;1.43;82.13;95916.03;5114414;28;20110;-64
2022/01/05 01:43:34;;;;;;;16.38;10.75;;;;;;;1.44;82.92;95916.00;5114712;28;20538;-68
2022/01/05 01:46:01;;;;;;;17.45;13.27;;;;;;;1.42;82.81;95910.03;5114445;28;20023;-65
2022/01/05 01:48:26;;;;;;;17.20;12.35;;;;;;;1.43;82.42;95905.72;5114443;28;20023;-67
2022/01/05 01:50:52;;;;;;;14.18;7.95;;;;;;;1.41;82.21;95902.31;5114437;28;20532;-66
2022/01/05 01:53:18;;;;;;;15.90;8.10;;;;;;;1.34;81.49;95907.53;5114447;28;20024;-66
2022/01/05 01:55:45;;;;;;;9.57;7.32;;;;;;;1.31;81.73;95902.41;5114354;28;20026;-67
2022/01/05 01:58:11;;;;;;;10.23;7.95;;;;;;;1.33;81.68;95894.66;5114175;28;20030;-66
2022/01/05 02:00:37;;;;;;;18.80;9.15;;;;;;;1.23;82.61;95889.63;5113056;28;20027;-63
2022/01/05 02:03:03;;;;;;;18.13;10.20;;;;;;;1.36;84.30;95887.75;5114333;28;20107;-65
2022/01/05 02:05:28;;;;;;;13.52;9.25;;;;;;;1.44;84.66;95882.50;5114164;28;20541;-66
2022/01/05 02:07:54;;;;;;;14.30;7.90;;;;;;;1.56;84.12;95888.38;5114164;28;20032;-67
2022/01/05 02:10:21;;;;;;;14.43;8.13;;;;;;;1.62;83.53;95888.28;5114076;28;20024;-64
2022/01/05 02:12:47;;;;;;;9.45;7.43;;;;;;;1.66;82.46;95891.69;5113990;28;20019;-65
2022/01/05 02:15:13;;;;;;;9.00;6.28;;;;;;;1.66;81.08;95883.97;5113951;28;20024;-67
2022/01/05 02:18:09;;;;;;;13.40;7.47;;;;;;;1.55;80.69;95887.53;5114007;28;20018;-65
2022/01/05 02:20:35;;;;;;;11.52;7.55;;;;;;;1.59;81.10;95884.03;5113860;28;20032;-66
2022/01/05 02:23:00;;;;;;;11.13;6.80;;;;;;;1.51;80.27;95885.88;5113914;28;20031;-68
2022/01/05 02:25:27;;;;;;;10.95;8.32;;;;;;;1.49;80.54;95891.03;5113748;28;20169;-64
2022/01/05 02:27:55;;;;;;;12.75;7.15;;;;;;;1.50;80.27;95895.31;5113816;28;20027;-65
2022/01/05 02:30:31;;;;;;;13.30;7.72;;;;;;;1.48;80.75;95902.19;5113893;28;20031;-64
2022/01/05 02:32:57;;;;;;;12.85;7.50;;;;;;;1.50;80.91;95891.88;5113934;28;20020;-65
2022/01/05 02:35:24;;;;;;;17.23;8.35;;;;;;;1.51;81.57;95889.28;5113696;28;20377;-65
2022/01/05 02:37:53;;;;;;;12.00;7.88;;;;;;;1.53;81.35;95884.09;5113698;28;20435;-67
2022/01/05 02:40:21;;;;;;;12.30;6.93;;;;;;;1.54;81.29;95874.66;5113492;28;20385;-67
2022/01/05 02:42:46;;;;;;;10.05;6.95;;;;;;;1.50;80.99;95872.09;5113063;28;20017;-67
2022/01/05 02:45:14;;;;;;;11.98;7.95;;;;;;;1.50;80.46;95874.69;5113670;28;20084;-67
2022/01/05 02:47:40;;;;;;;11.10;7.25;;;;;;;1.44;80.68;95882.50;5113569;28;20482;-65
2022/01/05 02:50:08;;;;;;;11.60;7.30;;;;;;;1.42;80.77;95881.69;5113537;28;20080;-69
2022/01/05 02:52:34;;;;;;;10.57;7.63;;;;;;;1.36;80.79;95877.44;5113516;28;20091;-67
2022/01/05 02:55:00;;;;;;;16.27;10.98;;;;;;;1.30;81.37;95866.34;5113511;28;20473;-66
2022/01/05 02:57:26;;;;;;;14.00;8.77;;;;;;;1.26;82.49;95866.38;5113415;28;20473;-63
2022/01/05 02:59:53;;;;;;;14.35;9.07;;;;;;;1.30;83.00;95868.94;5113347;28;20032;-68
2022/01/05 03:02:18;;;;;;;12.40;8.55;;;;;;;1.34;82.68;95863.72;5113441;28;20031;-67
2022/01/05 03:04:44;;;;;;;12.18;7.05;;;;;;;1.38;81.99;95864.53;5113342;28;20572;-65
2022/01/05 03:07:09;;;;;;;11.45;8.27;;;;;;;1.32;81.73;95870.59;5113382;28;20032;-64
2022/01/05 03:09:35;;;;;;;12.57;7.97;;;;;;;1.30;82.45;95863.78;5113435;28;20031;-65
2022/01/05 03:12:01;;;;;;;12.40;8.82;;;;;;;1.24;83.49;95868.13;5113310;28;20477;-65
2022/01/05 03:14:26;;;;;;;13.63;8.35;;;;;;;1.33;83.45;95862.03;5113294;28;20098;-69
2022/01/05 03:16:52;;;;;;;16.75;7.90;;;;;;;1.36;82.71;95867.13;5113271;28;20040;-68
2022/01/05 03:19:17;;;;;;;12.52;7.80;;;;;;;1.39;82.15;95871.41;5113282;28;20031;-63
2022/01/05 03:21:43;;;;;;;13.63;8.68;;;;;;;1.43;82.19;95877.34;5113213;28;20555;-67
2022/01/05 03:24:09;;;;;;;13.68;8.65;;;;;;;1.43;81.96;95877.34;5113141;28;20122;-66
2022/01/05 03:26:34;;;;;;;14.20;7.95;;;;;;;1.46;81.58;95877.31;5113091;28;20047;-64
2022/01/05 03:29:00;;;;;;;10.43;7.72;;;;;;;1.39;80.44;95872.22;5113245;28;20474;-62
2022/01/05 03:31:25;;;;;;;13.00;7.55;;;;;;;1.33;80.37;95871.47;5113199;28;20038;-68
2022/01/05 03:33:51;;;;;;;12.40;7.95;;;;;;;1.28;80.25;95863.78;5113190;28;20019;-69
2022/01/05 03:36:17;;;;;;;11.98;8.82;;;;;;;1.24;80.59;95869.88;5113056;28;20520;-66
2022/01/05 03:38:42;;;;;;;11.98;8.60;;;;;;;1.26;81.14;95866.38;5113105;28;20374;-63
2022/01/05 03:41:08;;;;;;;11.90;8.27;;;;;;;1.18;81.17;95862.19;5113127;28;20542;-66
2022/01/05 03:43:34;;;;;;;12.55;8.35;;;;;;;1.20;81.72;95852.75;5113109;28;20419;-66
2022/01/05 03:45:59;;;;;;;15.05;8.77;;;;;;;1.19;81.28;95853.59;5113157;28;20474;-68
2022/01/05 03:48:25;;;;;;;12.10;7.82;;;;;;;1.22;81.19;95849.25;5112968;28;20012;-64
2022/01/05 03:50:50;;;;;;;13.38;8.07;;;;;;;1.19;80.87;95857.03;5112929;28;20019;-64
2022/01/05 03:53:16;;;;;;;11.60;7.45;;;;;;;1.08;81.37;95852.00;5114407;28;20076;-63
2022/01/05 03:55:43;;;;;;;13.27;7.80;;;;;;;1.07;81.61;95847.72;5116742;28;20092;-67
2022/01/05 03:58:10;;;;;;;17.08;9.32;;;;;;;1.09;81.68;95858.00;5116777;28;20023;-68
2022/01/05 04:00:40;;;;;;;14.90;8.85;;;;;;;1.05;82.96;95848.63;5116405;28;20469;-70
2022/01/05 04:03:05;;;;;;;14.60;9.05;;;;;;;1.16;82.66;95856.19;5116694;28;20036;-67
2022/01/05 04:05:31;;;;;;;16.65;9.30;;;;;;;1.20;83.63;95853.56;5116420;28;20027;-69
2022/01/05 04:07:57;;;;;;;16.90;9.68;;;;;;;1.28;83.39;95855.19;5116517;28;20029;-67
2022/01/05 04:10:22;;;;;;;13.68;8.35;;;;;;;1.32;82.42;95852.56;5116404;28;20047;-67
2022/01/05 04:12:48;;;;;;;12.13;7.57;;;;;;;1.31;81.72;95852.59;5116335;28;20024;-68
2022/01/05 04:15:15;;;;;;;9.57;6.80;;;;;;;1.23;81.29;95850.97;5116271;28;20051;-65
2022/01/05 04:17:41;;;;;;;11.27;8.00;;;;;;;1.19;81.15;95844.16;5116305;28;20564;-66
2022/01/05 04:20:09;;;;;;;12.15;8.27;;;;;;;1.15;81.61;95841.63;5116156;28;20115;-70
2022/01/05 04:22:34;;;;;;;16.48;9.35;;;;;;;1.18;82.16;95834.72;5116146;28;20106;-68
2022/01/05 04:25:00;;;;;;;13.15;8.38;;;;;;;1.14;82.67;95843.34;5115866;28;20530;-66
2022/01/05 04:27:27;;;;;;;20.00;10.63;;;;;;;1.09;84.02;95834.81;5116082;28;20019;-67
2022/01/05 04:29:53;;;;;;;15.10;10.23;;;;;;;1.11;84.57;95843.38;5116125;28;20493;-65
2022/01/05 04:32:18;;;;;;;17.08;10.60;;;;;;;1.16;84.56;95849.34;5116203;28;20022;-68
2022/01/05 04:34:44;;;;;;;16.08;10.10;;;;;;;1.25;84.40;95849.22;5116009;28;20538;-65
2022/01/05 04:37:09;;;;;;;12.75;9.43;;;;;;;1.32;84.18;95856.88;5115860;28;20401;-65
2022/01/05 04:39:36;;;;;;;12.70;8.60;;;;;;;1.38;83.84;95859.38;5115909;28;20098;-69
2022/01/05 04:42:02;;;;;;;12.75;8.13;;;;;;;1.36;83.29;95856.81;5115764;28;20027;-64
2022/01/05 04:44:28;;;;;;;14.57;10.23;;;;;;;1.42;83.14;95857.63;5115813;28;20065;-69
2022/01/05 04:46:53;;;;;;;17.17;8.00;;;;;;;1.41;82.86;95856.75;5115751;28;20027;-65
2022/01/05 04:49:19;;;;;;;13.52;7.82;;;;;;;1.45;82.45;95865.31;5115726;28;20023;-68
2022/01/05 04:51:45;;;;;;;14.80;9.00;;;;;;;1.48;82.47;95875.59;5115536;28;20023;-68
2022/01/05 04:54:10;;;;;;;11.85;8.50;;;;;;;1.47;82.11;95876.44;5115558;28;20099;-65
2022/01/05 04:56:36;;;;;;;9.60;6.70;;;;;;;1.49;81.82;95869.56;5115555;28;20044;-69
2022/01/05 04:59:02;;;;;;;11.48;7.22;;;;;;;1.44;82.56;95874.75;5115436;28;20035;-65
2022/01/05 05:01:28;;;;;;;11.15;8.15;;;;;;;1.36;82.12;95871.44;5115228;28;20023;-64
2022/01/05 05:03:53;;;;;;;10.50;7.15;;;;;;;1.32;82.15;95875.75;5115323;27;20094;-68
2022/01/05 05:06:19;;;;;;;16.05;8.85;;;;;;;1.32;82.70;95874.94;5114949;28;20023;-64
2022/01/05 05:08:45;;;;;;;10.25;7.18;;;;;;;1.34;83.02;95879.19;5115231;28;20844;-67
2022/01/05 05:11:10;;;;;;;11.15;7.43;;;;;;;1.33;82.98;95882.66;5115230;28;20431;-68
2022/01/05 05:13:36;;;;;;;12.00;7.93;;;;;;;1.37;83.76;95886.88;5115275;28;20015;-65
2022/01/05 05:16:02;;;;;;;7.57;6.78;;;;;;;1.40;83.44;95886.00;5115150;28;20042;-69
2022/01/05 05:18:27;;;;;;;14.85;9.02;;;;;;;1.38;83.33;95891.16;5115038;28;20023;-64
2022/01/05 05:20:53;;;;;;;15.98;9.70;;;;;;;1.42;83.62;95886.84;5115086;28;20072;-66
2022/01/05 05:23:19;;;;;;;14.02;8.25;;;;;;;1.48;83.26;95879.00;5115116;28;20103;-68
2022/01/05 05:25:44;;;;;;;10.20;7.28;;;;;;;1.49;83.09;95880.72;5113379;28;20390;-68
2022/01/05 05:28:10;;;;;;;17.90;9.32;;;;;;;1.46;83.12;95885.06;5114854;28;20115;-66
2022/01/05 05:30:36;;;;;;;13.43;8.80;;;;;;;1.51;83.93;95880.72;5114772;28;20490;-66
2022/01/05 05:33:02;;;;;;;16.80;8.38;;;;;;;1.54;84.38;95883.25;5114767;28;20488;-67
2022/01/05 05:35:28;;;;;;;13.63;8.98;;;;;;;1.62;85.26;95875.41;5114746;28;20023;-66
2022/01/05 05:37:55;;;;;;;13.63;9.18;;;;;;;1.73;85.24;95877.84;5114836;28;20469;-68
2022/01/05 05:40:21;;;;;;;14.65;8.63;;;;;;;1.69;84.45;95871.88;5114650;28;20111;-66
2022/01/05 05:42:47;;;;;;;13.75;8.48;;;;;;;1.73;84.15;95893.31;5114511;28;20031;-64
2022/01/05 05:45:13;;;;;;;10.05;7.90;;;;;;;1.74;83.45;95889.84;5114465;28;20511;-64
2022/01/05 05:47:38;;;;;;;12.52;7.63;;;;;;;1.76;82.30;95893.28;5114610;28;20027;-64
2022/01/05 05:50:04;;;;;;;7.35;6.47;;;;;;;1.75;81.76;95884.66;5114549;28;20019;-68
2022/01/05 05:52:30;;;;;;;12.93;7.82;;;;;;;1.74;81.59;95882.97;5114460;28;20032;-66
2022/01/05 05:54:56;;;;;;;17.25;9.57;;;;;;;1.74;81.79;95885.56;5114524;28;20022;-67
2022/01/05 05:57:22;;;;;;;9.40;6.82;;;;;;;1.74;81.55;95884.69;5114346;28;20096;-63
2022/01/05 05:59:47;;;;;;;7.28;5.35;;;;;;;1.75;80.67;95894.16;5114409;28;20030;-65
2022/01/05 06:02:13;;;;;;;11.20;7.28;;;;;;;1.77;80.37;95903.56;5114292;28;20020;-66
2022/01/05 06:04:38;;;;;;;13.55;8.30;;;;;;;1.79;80.19;95898.41;5114206;28;20032;-68
2022/01/05 06:07:04;;;;;;;17.50;10.48;;;;;;;1.74;80.17;95898.44;5114146;28;20027;-69
2022/01/05 06:09:29;;;;;;;18.65;10.65;;;;;;;1.66;80.66;95908.03;5114294;28;20016;-64
2022/01/05 06:11:55;;;;;;;15.50;9.43;;;;;;;1.67;81.51;95906.28;5114119;28;20027;-65
2022/01/05 06:14:21;;;;;;;11.63;7.75;;;;;;;1.78;81.51;95904.44;5114157;28;20081;-67
2022/01/05 06:16:46;;;;;;;11.77;7.70;;;;;;;1.85;80.98;95910.34;5113075;28;20568;-66
2022/01/05 06:19:12;;;;;;;10.05;7.28;;;;;;;1.88;80.24;95913.75;5114053;28;20091;-68
2022/01/05 06:21:37;;;;;;;15.40;7.63;;;;;;;1.87;79.85;95924.91;5113855;28;20481;-62
2022/01/05 06:24:03;;;;;;;11.63;6.85;;;;;;;1.81;79.87;95917.28;5113637;28;20122;-65
2022/01/05 06:26:29;;;;;;;13.65;9.55;;;;;;;2.01;82.24;95916.16;5113596;28;20409;-69
2022/01/05 06:28:54;;;;;;;16.20;8.63;;;;;;;3.05;81.82;95921.41;5113751;28;20019;-67
2022/01/05 06:31:20;;;;;;;7.35;5.65;;;;;;;4.71;75.87;95916.19;5113753;28;20019;-66
2022/01/05 06:33:46;;;;;;;6.40;4.57;;;;;;;6.39;68.07;95925.47;5114025;28;20023;-67
2022/01/05 06:36:11;;;;;;;7.15;4.28;;;;;;;7.86;63.18;95923.16;5113725;28;20206;-66
2022/01/05 06:38:37;;;;;;;5.80;4.53;;;;;;;9.35;58.91;95927.75;5113797;28;20026;-67
2022/01/05 06:41:02;;;;;;;4.43;3.55;;;;;;;10.78;53.08;95929.22;5113533;28;20106;-64
2022/01/05 06:43:30;;;;;;;6.43;4.05;;;;;;;12.06;50.15;95921.00;5113679;28;20031;-66
2022/01/05 06:45:57;;;;;;;5.97;4.10;;;;;;;13.34;48.06;95923.59;5113702;28;20027;-65
2022/01/05 06:48:22;;;;;;;3.80;3.40;;;;;;;14.26;43.02;95928.63;5113595;28;20043;-68
2022/01/05 06:50:48;;;;;;;5.10;4.18;;;;;;;15.20;42.77;95938.53;5113495;28;20488;-67
2022/01/05 06:53:14;;;;;;;5.05;4.10;;;;;;;16.15;40.08;95935.63;5113470;28;20031;-69
2022/01/05 06:55:40;;;;;;;9.52;3.75;;;;;;;16.68;38.81;95923.16;5113619;28;20543;-66
2022/01/05 06:58:05;;;;;;;4.50;3.60;;;;;;;17.18;38.40;95919.56;5112325;28;20023;-65
2022/01/05 07:00:31;;;;;;;5.07;3.72;;;;;;;17.58;37.73;95915.69;5113632;28;20111;-66
2022/01/05 07:02:57;;;;;;;9.13;4.63;;;;;;;18.27;37.32;95913.13;5113582;28;20081;-70
2022/01/05 07:05:23;;;;;;;4.07;3.58;;;;;;;19.04;35.18;95915.81;5113325;28;20024;-69
2022/01/05 07:07:48;;;;;;;4.55;4.00;;;;;;;19.40;32.66;95916.41;5113426;28;20028;-68
2022/01/05 07:10:14;;;;;;;5.20;4.00;;;;;;;19.75;33.54;95917.03;5113550;28;20027;-65
2022/01/05 07:12:40;;;;;;;5.32;4.00;;;;;;;20.13;32.89;95922.72;5113405;28;20050;-66
2022/01/05 07:15:06;;;;;;;4.18;3.75;;;;;;;20.43;31.50;95915.69;5113347;28;20048;-64
2022/01/05 07:17:31;;;;;;;4.32;3.35;;;;;;;20.58;31.27;95915.31;5113271;28;20452;-64
2022/01/05 07:19:57;;;;;;;5.13;4.35;;;;;;;21.04;31.30;95915.69;5113063;28;20112;-66
2022/01/05 07:22:23;;;;;;;5.70;4.35;;;;;;;21.38;30.87;95916.25;5113332;28;20035;-66
2022/01/05 07:24:48;;;;;;;4.20;3.75;;;;;;;21.71;29.98;95917.56;5113057;28;20058;-71
2022/01/05 07:27:14;;;;;;;5.72;4.32;;;;;;;22.12;29.71;95921.84;5113327;28;20035;-68
2022/01/05 07:29:39;;;;;;;5.43;3.75;;;;;;;22.62;29.07;95916.31;5117049;28;20060;-64
2022/01/05 07:32:05;;;;;;;4.25;3.58;;;;;;;23.31;28.52;95919.34;5117245;28;20019;-65
2022/01/05 07:34:31;;;;;;;4.05;3.65;;;;;;;23.94;27.64;95916.66;5117081;28;20034;-69
2022/01/05 07:36:57;;;;;;;5.22;4.20;;;;;;;24.37;27.32;95915.88;5117215;28;20519;-69
2022/01/05 07:39:22;;;;;;;6.40;4.50;;;;;;;24.52;26.99;95912.59;5117143;28;20039;-68
2022/01/05 07:41:48;;;;;;;5.60;4.50;;;;;;;24.90;26.60;95913.09;5116888;28;20476;-67
2022/01/05 07:44:14;;;;;;;4.07;3.45;;;;;;;25.02;26.45;95916.28;5116943;28;20047;-71
2022/01/05 07:46:39;;;;;;;4.15;3.67;;;;;;;24.61;27.09;95908.97;5117036;28;20020;-66
2022/01/05 07:49:05;;;;;;;6.95;4.15;;;;;;;24.33;27.85;95919.88;5116984;28;20073;-67
2022/01/05 07:51:32;;;;;;;6.70;4.10;;;;;;;24.56;27.65;95921.97;5116851;28;20622;-70
2022/01/05 07:53:58;;;;;;;6.15;4.75;;;;;;;24.35;27.56;95917.91;5116663;28;20030;-62
2022/01/05 07:56:24;;;;;;;6.47;4.85;;;;;;;23.63;28.86;95922.44;5116766;28;20020;-71
2022/01/05 07:58:50;;;;;;;6.57;5.00;;;;;;;22.49;30.26;95911.31;5116629;28;20023;-64
2022/01/05 08:01:18;;;;;;;5.63;5.03;;;;;;;22.31;30.28;95922.75;5116518;27;20107;-69
2022/01/05 08:03:45;;;;;;;7.05;4.57;;;;;;;21.68;31.29;95925.88;5116518;28;20031;-64
2022/01/05 08:06:11;;;;;;;4.90;4.38;;;;;;;21.88;31.60;95923.19;5116491;28;20106;-66
2022/01/05 08:08:37;;;;;;;6.53;4.97;;;;;;;22.01;31.77;95922.03;5116617;28;20131;-66
2022/01/05 08:11:02;;;;;;;6.20;5.13;;;;;;;22.24;31.50;95919.00;5116439;28;20181;-64
2022/01/05 08:13:28;;;;;;;6.75;5.03;;;;;;;22.92;30.50;95925.81;5116445;28;20023;-68
2022/01/05 08:15:54;;;;;;;7.43;5.22;;;;;;;23.88;28.81;95911.09;5116325;27;20020;-67
2022/01/05 08:18:20;;;;;;;6.65;4.53;;;;;;;24.72;27.75;95907.81;5116319;27;20023;-71
2022/01/05 08:20:47;;;;;;;6.30;4.68;;;;;;;24.79;27.96;95900.81;5116055;28;20021;-70
2022/01/05 08:23:20;;;;;;;5.35;4.10;;;;;;;24.83;28.03;95901.34;5116365;28;20024;-64
2022/01/05 08:25:46;;;;;;;6.68;4.38;;;;;;;24.93;28.10;95899.38;5115998;28;20039;-66
2022/01/05 08:28:14;;;;;;;5.68;4.32;;;;;;;25.07;28.52;95903.22;5116084;28;20023;-68
2022/01/05 08:30:40;;;;;;;6.40;4.25;;;;;;;25.18;28.34;95904.75;5116062;28;20073;-65
2022/01/05 08:33:07;;;;;;;6.70;5.28;;;;;;;25.17;28.06;95908.44;5115972;28;20043;-69
2022/01/05 08:35:34;;;;;;;7.03;5.40;;;;;;;25.34;27.70;95911.09;5115883;28;20019;-67
2022/01/05 08:38:00;;;;;;;7.15;4.97;;;;;;;24.24;29.09;95900.31;5115861;28;20024;-68
2022/01/05 08:40:27;;;;;;;6.85;4.60;;;;;;;23.68;30.02;95905.94;5114865;28;20520;-67
2022/01/05 08:42:54;;;;;;;9.57;5.45;;;;;;;23.80;30.63;95904.72;5115739;28;20051;-69
2022/01/05 08:45:23;;;;;;;7.88;6.20;;;;;;;23.55;30.36;95895.69;5115832;28;20022;-63
2022/01/05 08:47:55;;;;;;;7.13;5.32;;;;;;;23.11;31.40;95894.66;5115675;28;20392;-63
2022/01/05 08:50:23;;;;;;;8.30;5.30;;;;;;;22.31;33.01;95886.28;5115564;28;20439;-70
2022/01/05 08:52:50;;;;;;;7.20;5.80;;;;;;;20.92;34.29;95885.72;5115451;28;20059;-67
2022/01/05 08:55:24;;;;;;;8.55;5.57;;;;;;;20.44;35.36;95884.69;5115558;27;20022;-65
2022/01/05 08:57:50;;;;;;;6.40;5.13;;;;;;;19.78;36.53;95887.59;5115483;28;20083;-67
2022/01/05 09:00:36;;;;;;;9.82;5.80;;;;;;;19.77;36.42;95890.38;5115414;28;20024;-67
2022/01/05 09:03:02;;;;;;;8.77;5.97;;;;;;;19.47;37.01;95886.75;5115328;28;20061;-67
2022/01/05 09:05:28;;;;;;;6.70;4.72;;;;;;;18.98;37.83;95882.72;5115423;28;20050;-64
2022/01/05 09:07:53;;;;;;;10.65;5.32;;;;;;;18.89;37.54;95875.53;5115246;28;20385;-68
2022/01/05 09:10:22;;;;;;;5.80;5.20;;;;;;;18.67;38.04;95866.72;5115172;28;20172;-61
2022/01/05 09:12:50;;;;;;;10.65;5.63;;;;;;;18.31;38.05;95864.28;5115514;28;20102;-70
2022/01/05 09:15:25;;;;;;;5.95;4.80;;;;;;;17.25;41.17;95867.91;5115208;27;20042;-63
2022/01/05 09:17:52;;;;;;;6.05;4.50;;;;;;;16.72;42.33;95863.03;5115190;28;20369;-66
2022/01/05 09:20:18;;;;;;;7.25;5.00;;;;;;;16.44;42.82;95868.53;5114936;27;20032;-65
2022/01/05 09:22:44;;;;;;;5.88;4.05;;;;;;;16.03;43.81;95862.63;5115002;28;20054;-64
2022/01/05 09:25:14;;;;;;;5.43;4.35;;;;;;;15.42;46.05;95869.41;5114799;28;20042;-68
2022/01/05 09:27:43;;;;;;;5.47;3.83;;;;;;;14.88;46.33;95863.34;5114930;28;20107;-67
2022/01/05 09:30:12;;;;;;;7.60;4.10;;;;;;;14.50;47.67;95857.81;5114789;28;20049;-66
2022/01/05 09:32:44;;;;;;;10.30;3.92;;;;;;;14.27;47.95;95849.59;5114738;28;20496;-64
2022/01/05 09:35:29;;;;;;;8.48;5.13;;;;;;;14.10;48.79;95847.22;5114674;28;20037;-67
2022/01/05 09:43:14;;;;;;;5.85;4.18;;;;;;;13.86;45.46;95842.56;5114706;28;20084;-67
2022/01/05 09:45:53;;;;;;;5.30;3.75;;;;;;;13.93;43.84;95832.53;5114573;28;20019;-65
2022/01/05 09:49:03;;;;;;;6.03;4.22;;;;;;;13.79;45.27;95833.38;5114624;28;20026;-66
2022/01/05 09:51:31;;;;;;;4.43;3.67;;;;;;;13.90;47.18;95831.75;5031683;28;20109;-65
2022/01/05 09:54:00;;;;;;;7.43;3.83;;;;;;;14.03;45.92;95828.38;5098325;28;20504;-68
2022/01/05 09:56:28;;;;;;;6.13;3.90;;;;;;;13.92;47.38;95826.41;5114331;28;20028;-64
2022/01/05 09:58:54;;;;;;;8.65;5.35;;;;;;;13.94;47.24;95829.75;5114221;28;20023;-64
2022/01/05 10:01:20;;;;;;;7.47;4.85;;;;;;;13.89;47.80;95830.09;5114203;28;20115;-66
2022/01/05 10:03:46;;;;;;;8.35;5.00;;;;;;;13.82;48.23;95823.50;5114280;28;20100;-64
2022/01/05 10:06:14;;;;;;;6.40;4.07;;;;;;;13.87;48.13;95816.19;5114166;28;20048;-66
2022/01/05 10:08:40;;;;;;;5.95;4.50;;;;;;;13.76;47.54;95814.22;5114136;28;20024;-64
2022/01/05 10:11:09;;;;;;;7.25;5.25;;;;;;;13.82;48.78;95815.59;5112696;28;20396;-68
2022/01/05 10:13:41;;;;;;;7.72;4.93;;;;;;;13.74;48.44;95816.13;5113934;28;20077;-65
2022/01/05 10:16:09;;;;;;;12.50;5.97;;;;;;;13.93;50.20;95814.94;5114020;28;20028;-67
2022/01/05 10:18:39;;;;;;;8.30;6.40;;;;;;;14.03;50.07;95818.69;5113993;28;20454;-68
2022/01/05 10:21:06;;;;;;;9.55;7.07;;;;;;;13.85;50.89;95812.78;5113800;28;20516;-62
2022/01/05 10:23:32;;;;;;;12.95;7.30;;;;;;;13.68;51.29;95811.22;5113823;28;20534;-68
2022/01/05 10:26:25;;;;;;;8.88;6.68;;;;;;;13.58;52.00;95807.50;5113455;28;20058;-64
2022/01/05 10:28:53;;;;;;;7.97;5.93;;;;;;;13.31;52.54;95801.19;5113978;28;20115;-62
2022/01/05 10:31:22;;;;;;;12.23;7.03;;;;;;;13.18;53.54;95802.88;5113721;28;20540;-65
2022/01/05 10:33:49;;;;;;;13.05;7.20;;;;;;;13.22;52.67;95799.09;5113751;28;20115;-67
2022/01/05 10:36:14;;;;;;;13.45;7.30;;;;;;;13.31;52.36;95793.31;5113668;28;20030;-66
2022/01/05 10:38:58;;;;;;;10.88;7.53;;;;;;;13.40;53.24;95787.47;5113613;28;20019;-61
2022/01/05 10:41:30;;;;;;;15.48;6.68;;;;;;;13.45;52.46;95783.75;5113209;28;20043;-64
2022/01/05 10:44:19;;;;;;;9.48;6.78;;;;;;;13.37;53.35;95790.28;5113826;28;20534;-68
2022/01/05 10:46:57;;;;;;;36.42;22.23;;;;;;;13.39;53.42;95779.69;5113605;28;20504;-64
2022/01/05 10:49:41;;;;;;;12.13;8.50;;;;;;;13.55;53.25;95770.91;5113572;28;20082;-69
2022/01/05 10:52:33;;;;;;;9.80;7.32;;;;;;;13.50;53.24;95772.03;5113677;28;20035;-68
2022/01/05 10:55:14;;;;;;;11.57;7.35;;;;;;;13.63;53.56;95766.84;5113522;28;20481;-63
2022/01/05 10:58:05;;;;;;;8.40;6.85;;;;;;;13.62;52.88;95777.44;5113561;28;20030;-66
2022/01/05 11:00:39;;;;;;;10.35;7.50;;;;;;;13.60;53.62;95769.66;5113423;28;20020;-67
2022/01/05 11:03:25;;;;;;;12.50;7.32;;;;;;;13.73;53.50;95777.59;5114676;28;20016;-67
2022/01/05 11:06:13;;;;;;;10.95;6.93;;;;;;;13.77;52.90;95773.03;5117706;28;20106;-68
2022/01/05 11:08:55;;;;;;;10.65;7.70;;;;;;;13.73;52.73;95766.28;5117703;28;20035;-65
2022/01/05 11:11:37;;;;;;;8.75;7.45;;;;;;;13.72;52.93;95769.81;5117502;28;20043;-67
2022/01/05 11:14:30;;;;;;;11.35;7.80;;;;;;;13.63;53.69;95766.00;5117601;28;20032;-64
2022/01/05 11:17:00;;;;;;;11.02;7.70;;;;;;;13.45;53.21;95762.72;5107569;27;20119;-68
2022/01/05 11:19:29;;;;;;;11.27;7.80;;;;;;;13.42;53.87;95765.53;5117475;28;20088;-68
2022/01/05 11:22:03;;;;;;;14.88;7.60;;;;;;;13.33;53.92;95762.53;5117219;28;20031;-66
2022/01/05 11:24:32;;;;;;;12.65;7.93;;;;;;;13.40;53.76;95760.38;5117392;28;20088;-63
2022/01/05 11:26:58;;;;;;;16.08;9.95;;;;;;;13.40;53.82;95757.75;5117183;28;20127;-65
2022/01/05 11:29:24;;;;;;;13.27;8.60;;;;;;;13.42;53.81;95750.59;5117195;28;20016;-67
2022/01/05 11:31:50;;;;;;;14.45;9.07;;;;;;;13.47;53.84;95751.16;5117201;28;20061;-62
2022/01/05 11:34:16;;;;;;;10.57;8.88;;;;;;;13.51;54.31;95734.31;5117112;28;20485;-64
2022/01/05 11:36:43;;;;;;;11.98;8.70;;;;;;;13.46;53.73;95746.84;5117090;28;20058;-66
2022/01/05 11:39:09;;;;;;;13.85;9.05;;;;;;;13.31;53.40;95740.78;5116984;28;20489;-67